createdAt,value
2022-11-09T00:02:07.298Z,27.30
2022-11-09T00:04:36.966Z,25.80
2022-11-09T00:07:05.024Z,24.90
2022-11-09T00:09:33.321Z,26.10
2022-11-09T00:12:05.421Z,26.70
2022-11-09T00:14:34.658Z,24.90
2022-11-09T00:17:02.598Z,27.30
2022-11-09T00:19:31.763Z,26.40
2022-11-09T00:22:00.681Z,28.20
2022-11-09T00:24:31.024Z,28.20
2022-11-09T00:26:58.927Z,27.90
2022-11-09T00:29:29.895Z,28.80
2022-11-09T00:31:58.069Z,27.60
2022-11-09T00:34:26.779Z,27.30
2022-11-09T00:36:54.737Z,25.00
2022-11-09T00:39:24.359Z,27.10
2022-11-09T00:41:52.602Z,26.90
2022-11-09T00:44:21.091Z,27.60
2022-11-09T00:46:49.379Z,27.30
2022-11-09T00:49:18.930Z,29.50
2022-11-09T00:51:47.814Z,25.40
2022-11-09T00:54:17.746Z,26.90
2022-11-09T00:56:46.436Z,25.70
2022-11-09T00:59:15.378Z,27.20
2022-11-09T01:01:43.633Z,26.90
2022-11-09T01:04:12.693Z,26.10
2022-11-09T01:06:40.977Z,26.00
2022-11-09T01:09:15.289Z,25.90
2022-11-09T01:11:43.869Z,26.00
2022-11-09T01:14:13.041Z,27.80
2022-11-09T01:16:41.051Z,25.60
2022-11-09T01:19:11.650Z,28.90
2022-11-09T01:21:40.145Z,29.20
2022-11-09T01:24:12.334Z,28.30
2022-11-09T01:26:40.450Z,28.90
2022-11-09T01:29:10.500Z,29.30
2022-11-09T01:31:39.768Z,29.60
2022-11-09T01:34:13.348Z,29.70
2022-11-09T01:36:42.427Z,28.90
2022-11-09T01:39:10.502Z,30.30
2022-11-09T01:41:39.908Z,28.40
2022-11-09T01:44:16.771Z,32.10
2022-11-09T01:47:10.437Z,27.30
2022-11-09T01:49:55.995Z,31.70
2022-11-09T01:52:35.451Z,32.00
2022-11-09T01:55:10.374Z,32.30
2022-11-09T01:57:44.776Z,33.40
2022-11-09T02:00:17.066Z,30.30
2022-11-09T02:02:52.198Z,30.10
2022-11-09T02:05:25.723Z,34.60
2022-11-09T02:07:55.957Z,31.00
2022-11-09T02:10:43.696Z,30.50
2022-11-09T02:13:17.120Z,36.60
2022-11-09T02:15:52.724Z,34.00
2022-11-09T02:18:21.609Z,31.50
2022-11-09T02:20:54.111Z,33.60
2022-11-09T02:23:26.218Z,33.80
2022-11-09T02:26:25.289Z,31.20
2022-11-09T02:28:55.580Z,31.50
2022-11-09T02:31:31.299Z,34.00
2022-11-09T02:34:08.843Z,32.00
2022-11-09T02:36:37.674Z,32.40
2022-11-09T02:39:07.325Z,32.50
2022-11-09T02:41:43.758Z,34.00
2022-11-09T02:44:15.525Z,31.50
2022-11-09T02:46:45.488Z,32.20
2022-11-09T02:49:15.340Z,30.80
2022-11-09T02:51:43.416Z,31.70
2022-11-09T02:54:12.773Z,34.10
2022-11-09T02:56:41.742Z,31.90
2022-11-09T02:59:11.597Z,34.00
2022-11-09T03:01:40.222Z,35.80
2022-11-09T03:04:08.354Z,36.70
2022-11-09T03:06:38.185Z,33.40
2022-11-09T03:09:16.918Z,38.00
2022-11-09T03:11:46.704Z,35.70
2022-11-09T03:14:16.706Z,35.00
2022-11-09T03:16:52.003Z,35.40
2022-11-09T03:19:20.278Z,32.50
2022-11-09T03:21:52.088Z,33.30
2022-11-09T03:24:26.636Z,35.40
2022-11-09T03:26:59.554Z,35.30
2022-11-09T03:29:28.700Z,34.50
2022-11-09T03:31:56.708Z,33.90
2022-11-09T03:34:25.223Z,35.30
2022-11-09T03:36:53.699Z,34.40
2022-11-09T03:39:22.267Z,35.20
2022-11-09T03:41:50.407Z,33.10
2022-11-09T03:44:21.268Z,33.20
2022-11-09T03:46:50.635Z,35.20
2022-11-09T03:49:21.040Z,34.40
2022-11-09T03:51:49.171Z,35.20
2022-11-09T03:54:18.575Z,36.70
2022-11-09T03:56:46.693Z,35.70
2022-11-09T03:59:14.630Z,38.60
2022-11-09T04:01:46.393Z,39.20
2022-11-09T04:04:15.177Z,39.30
2022-11-09T04:06:43.944Z,36.20
2022-11-09T04:09:12.071Z,37.80
2022-11-09T04:11:40.069Z,33.90
2022-11-09T04:14:10.079Z,36.60
2022-11-09T04:16:38.624Z,40.60
2022-11-09T04:19:06.561Z,37.00
2022-11-09T04:21:34.849Z,37.90
2022-11-09T04:24:03.237Z,35.00
2022-11-09T04:26:31.182Z,36.40
2022-11-09T04:28:59.355Z,37.40
2022-11-09T04:31:28.765Z,41.00
2022-11-09T04:33:57.510Z,37.80
2022-11-09T04:36:28.645Z,38.90
2022-11-09T04:38:56.983Z,40.30
2022-11-09T04:41:26.232Z,40.20
2022-11-09T04:43:54.295Z,36.30
2022-11-09T04:46:22.408Z,38.70
2022-11-09T04:48:51.584Z,37.30
2022-11-09T04:51:19.773Z,40.30
2022-11-09T04:53:50.229Z,38.40
2022-11-09T04:56:20.964Z,36.80
2022-11-09T04:58:50.880Z,37.70
2022-11-09T05:01:25.564Z,39.00
2022-11-09T05:03:54.355Z,39.00
2022-11-09T05:06:43.378Z,40.40
2022-11-09T05:09:11.766Z,35.20
2022-11-09T05:11:39.788Z,37.90
2022-11-09T05:14:08.324Z,38.50
2022-11-09T05:16:39.892Z,36.00
2022-11-09T05:19:09.634Z,38.30
2022-11-09T05:21:37.605Z,39.50
2022-11-09T05:24:06.068Z,39.00
2022-11-09T05:26:43.574Z,37.40
2022-11-09T05:29:14.092Z,35.40
2022-11-09T05:31:49.179Z,34.50
2022-11-09T05:34:19.998Z,36.30
2022-11-09T05:36:48.021Z,34.90
2022-11-09T05:39:23.272Z,37.80
2022-11-09T05:41:51.386Z,37.00
2022-11-09T05:44:20.787Z,35.30
2022-11-09T05:46:49.140Z,35.70
2022-11-09T05:49:17.221Z,37.70
2022-11-09T05:51:46.378Z,35.40
2022-11-09T05:54:14.450Z,37.30
2022-11-09T05:56:43.989Z,35.40
2022-11-09T05:59:12.360Z,39.10
2022-11-09T06:01:40.741Z,34.50
2022-11-09T06:04:11.811Z,35.20
2022-11-09T06:06:40.978Z,37.30
2022-11-09T06:09:09.959Z,38.50
2022-11-09T06:11:38.649Z,38.80
2022-11-09T06:14:07.674Z,36.20
2022-11-09T06:16:36.832Z,37.10
2022-11-09T06:19:12.432Z,38.90
2022-11-09T06:21:40.624Z,41.30
2022-11-09T06:24:09.878Z,38.20
2022-11-09T06:26:38.554Z,35.90
2022-11-09T06:29:06.930Z,36.90
2022-11-09T06:31:35.039Z,37.10
2022-11-09T06:34:03.802Z,39.40
2022-11-09T06:36:31.933Z,45.20
2022-11-09T06:39:05.951Z,37.20
2022-11-09T06:41:41.147Z,42.30
2022-11-09T06:44:11.481Z,32.70
2022-11-09T06:46:39.630Z,32.20
2022-11-09T06:49:09.529Z,35.70
2022-11-09T06:51:38.601Z,36.30
2022-11-09T06:54:06.871Z,38.00
2022-11-09T06:56:36.038Z,33.50
2022-11-09T06:59:05.019Z,33.20
2022-11-09T07:01:34.568Z,33.80
2022-11-09T07:04:03.810Z,37.60
2022-11-09T07:06:32.400Z,37.80
2022-11-09T07:09:00.488Z,33.20
2022-11-09T07:11:28.448Z,35.60
2022-11-09T07:13:57.764Z,33.60
2022-11-09T07:16:27.456Z,38.70
2022-11-09T07:18:55.605Z,37.40
2022-11-09T07:21:24.016Z,34.90
2022-11-09T07:23:52.048Z,33.40
2022-11-09T07:26:20.796Z,34.00
2022-11-09T07:28:48.906Z,34.60
2022-11-09T07:31:17.563Z,31.70
2022-11-09T07:33:46.958Z,31.20
2022-11-09T07:36:21.091Z,32.70
2022-11-09T07:38:49.681Z,31.90
2022-11-09T07:41:17.658Z,34.40
2022-11-09T07:43:45.669Z,31.90
2022-11-09T07:46:14.611Z,32.80
2022-11-09T07:48:42.888Z,36.00
2022-11-09T07:51:10.895Z,31.50
2022-11-09T07:53:39.102Z,31.00
2022-11-09T07:56:07.361Z,27.60
2022-11-09T07:58:37.268Z,30.20
2022-11-09T08:01:10.521Z,30.10
2022-11-09T08:03:38.628Z,29.10
2022-11-09T08:06:14.291Z,27.70
2022-11-09T08:08:45.475Z,27.40
2022-11-09T08:11:13.397Z,29.10
2022-11-09T08:13:41.673Z,28.00
2022-11-09T08:16:10.100Z,29.50
2022-11-09T08:18:38.064Z,29.50
2022-11-09T08:21:06.506Z,30.40
2022-11-09T08:23:34.476Z,28.50
2022-11-09T08:26:05.613Z,30.20
2022-11-09T08:28:36.370Z,30.60
2022-11-09T08:31:08.293Z,27.30
2022-11-09T08:33:40.251Z,28.30
2022-11-09T08:36:15.516Z,31.30
2022-11-09T08:38:46.729Z,26.40
2022-11-09T08:41:15.555Z,25.80
2022-11-09T08:43:48.558Z,28.40
2022-11-09T08:46:18.188Z,28.30
2022-11-09T08:48:50.415Z,29.80
2022-11-09T08:51:19.976Z,24.00
2022-11-09T08:53:49.664Z,29.60
2022-11-09T08:56:20.803Z,26.80
2022-11-09T08:58:52.829Z,27.40
2022-11-09T09:01:34.771Z,25.90
2022-11-09T09:04:17.626Z,26.30
2022-11-09T09:06:46.121Z,31.50
2022-11-09T09:09:23.109Z,28.90
2022-11-09T09:11:52.809Z,27.10
2022-11-09T09:14:26.317Z,29.90
2022-11-09T09:16:58.932Z,27.90
2022-11-09T09:19:29.675Z,26.50
2022-11-09T09:22:01.906Z,25.90
2022-11-09T09:27:18.713Z,25.80
2022-11-09T09:29:47.679Z,25.10
2022-11-09T09:32:16.850Z,28.50
2022-11-09T09:34:51.014Z,26.10
2022-11-09T09:37:33.683Z,26.90
2022-11-09T09:40:04.528Z,23.20
2022-11-09T09:42:38.882Z,24.20
2022-11-09T09:45:08.518Z,24.70
2022-11-09T09:47:50.346Z,26.10
2022-11-09T09:50:40.613Z,26.20
2022-11-09T09:53:55.884Z,29.10
2022-11-09T09:56:58.263Z,24.10
2022-11-09T09:59:47.601Z,24.60
2022-11-09T10:02:42.604Z,25.40
2022-11-09T10:08:12.893Z,28.40
2022-11-09T10:11:08.712Z,28.30
2022-11-09T10:14:05.763Z,26.50
2022-11-09T10:16:46.009Z,29.50
2022-11-09T10:19:39.383Z,27.90
2022-11-09T10:22:33.136Z,28.70
2022-11-09T10:25:32.270Z,29.50
2022-11-09T10:28:14.649Z,29.10
2022-11-09T10:30:44.635Z,27.00
2022-11-09T10:33:23.178Z,29.70
2022-11-09T10:36:18.711Z,29.70
2022-11-09T10:38:52.061Z,27.00
2022-11-09T10:44:54.572Z,27.20
2022-11-09T10:47:49.956Z,29.70
2022-11-09T10:50:51.995Z,29.20
2022-11-09T10:53:39.657Z,26.80
2022-11-09T10:56:32.929Z,28.50
2022-11-09T11:00:02.230Z,27.50
2022-11-09T11:02:50.664Z,25.70
2022-11-09T11:05:40.032Z,27.90
2022-11-09T11:08:31.345Z,25.20
2022-11-09T11:11:41.101Z,30.10
2022-11-09T11:14:36.771Z,24.50
2022-11-09T11:17:44.676Z,29.50
2022-11-09T11:20:41.600Z,27.20
2022-11-09T11:23:28.170Z,28.50
2022-11-09T11:26:26.051Z,25.80
2022-11-09T11:29:47.460Z,27.70
2022-11-09T11:32:35.798Z,27.20
2022-11-09T11:35:40.255Z,24.50
2022-11-09T11:38:34.368Z,29.20
2022-11-09T11:41:44.992Z,31.80
2022-11-09T11:45:03.147Z,26.30
2022-11-09T11:48:42.667Z,31.50
2022-11-09T11:52:15.559Z,32.20
2022-11-09T11:55:25.543Z,31.40
2022-11-09T11:58:34.363Z,32.50
2022-11-09T12:01:56.533Z,30.20
2022-11-09T12:04:44.357Z,33.50
2022-11-09T12:07:38.727Z,31.50
2022-11-09T12:10:58.723Z,30.70
2022-11-09T12:13:49.507Z,36.00
2022-11-09T12:17:11.186Z,36.20
2022-11-09T12:20:03.742Z,36.20
2022-11-09T12:23:17.586Z,40.40
2022-11-09T12:26:32.986Z,37.50
2022-11-09T12:32:36.497Z,42.00
2022-11-09T12:35:28.482Z,45.80
2022-11-09T12:38:29.227Z,42.80
2022-11-09T12:41:19.866Z,44.00
2022-11-09T12:44:17.221Z,44.40
2022-11-09T12:47:15.607Z,36.00
2022-11-09T12:50:08.191Z,40.40
2022-11-09T12:52:59.039Z,33.20
2022-11-09T12:56:17.451Z,37.90
2022-11-09T12:59:29.306Z,36.40
2022-11-09T13:02:38.419Z,39.50
2022-11-09T13:05:33.482Z,33.70
2022-11-09T13:08:32.698Z,44.40
2022-11-09T13:11:42.079Z,35.10
2022-11-09T13:14:40.216Z,36.80
2022-11-09T13:17:27.367Z,37.40
2022-11-09T13:24:03.847Z,38.90
2022-11-09T13:27:40.687Z,37.60
2022-11-09T13:30:50.524Z,34.70
2022-11-09T13:33:39.473Z,37.00
2022-11-09T13:36:27.237Z,41.20
2022-11-09T13:39:26.020Z,37.80
2022-11-09T13:42:41.138Z,34.10
2022-11-09T13:45:34.180Z,33.30
2022-11-09T13:48:44.693Z,35.20
2022-11-09T13:51:50.654Z,37.60
2022-11-09T13:54:46.929Z,38.70
2022-11-09T13:57:46.745Z,43.90
2022-11-09T14:00:34.200Z,45.30
2022-11-09T14:03:29.904Z,44.00
2022-11-09T14:06:17.758Z,50.40
2022-11-09T14:09:09.288Z,62.80
2022-11-09T14:12:22.825Z,45.80
2022-11-09T14:15:28.440Z,37.40
2022-11-09T14:18:57.457Z,41.40
2022-11-09T14:21:52.305Z,44.40
2022-11-09T14:24:40.717Z,41.40
2022-11-09T14:27:28.812Z,42.60
2022-11-09T14:30:23.980Z,37.30
2022-11-09T14:33:24.623Z,38.60
2022-11-09T14:36:13.153Z,38.60
2022-11-09T14:39:04.249Z,34.80
2022-11-09T14:41:52.791Z,35.20
2022-11-09T14:44:44.332Z,38.30
2022-11-09T14:47:37.035Z,35.30
2022-11-09T14:50:31.678Z,43.30
2022-11-09T14:56:43.667Z,40.90
2022-11-09T14:59:38.024Z,39.90
2022-11-09T15:02:26.520Z,37.90
2022-11-09T15:05:51.167Z,37.80
2022-11-09T15:08:49.955Z,43.00
2022-11-09T15:12:18.141Z,45.80
2022-11-09T15:15:09.487Z,41.70
2022-11-09T15:18:09.926Z,39.60
2022-11-09T15:21:28.228Z,37.30
2022-11-09T15:24:18.584Z,37.80
2022-11-09T15:27:35.683Z,36.40
2022-11-09T15:34:24.669Z,40.20
2022-11-09T15:37:22.699Z,42.10
2022-11-09T15:40:15.626Z,39.60
2022-11-09T15:43:02.529Z,40.00
2022-11-09T15:45:49.557Z,39.80
2022-11-09T15:48:38.503Z,43.90
2022-11-09T15:51:27.390Z,44.30
2022-11-09T15:54:15.663Z,44.40
2022-11-09T15:57:04.054Z,49.60
2022-11-09T15:59:52.614Z,45.20
2022-11-09T16:02:39.277Z,44.70
2022-11-09T16:05:28.091Z,46.80
2022-11-09T16:08:16.129Z,49.80
2022-11-09T16:11:08.885Z,49.30
2022-11-09T16:14:05.999Z,56.70
2022-11-09T16:16:53.368Z,53.50
2022-11-09T16:19:42.811Z,59.90
2022-11-09T16:22:33.537Z,53.40
2022-11-09T16:25:20.601Z,60.20
2022-11-09T16:28:07.708Z,50.80
2022-11-09T16:31:02.181Z,48.40
2022-11-09T16:33:51.302Z,51.90
2022-11-09T16:36:47.952Z,50.70
2022-11-09T16:39:41.425Z,52.70
2022-11-09T16:42:28.902Z,49.50
2022-11-09T16:45:18.469Z,55.90
2022-11-09T16:48:11.979Z,51.90
2022-11-09T16:50:58.983Z,48.40
2022-11-09T16:53:46.601Z,52.90
2022-11-09T16:56:35.485Z,50.20
2022-11-09T16:59:25.576Z,49.70
2022-11-09T17:02:12.295Z,51.80
2022-11-09T17:05:00.474Z,45.60
2022-11-09T17:07:48.282Z,48.90
2022-11-09T17:10:43.727Z,53.50
2022-11-09T17:13:30.702Z,55.10
2022-11-09T17:16:22.760Z,54.60
2022-11-09T17:19:10.277Z,49.40
2022-11-09T17:21:57.660Z,48.60
2022-11-09T17:24:45.980Z,50.10
2022-11-09T17:27:32.805Z,52.30
2022-11-09T17:30:20.162Z,54.00
2022-11-09T17:33:07.999Z,59.90
2022-11-09T17:36:02.110Z,63.60
2022-11-09T17:41:42.668Z,52.70
2022-11-09T17:44:29.986Z,51.80
2022-11-09T17:47:17.558Z,53.60
2022-11-09T17:50:09.843Z,52.60
2022-11-09T17:52:59.333Z,51.80
2022-11-09T17:55:54.438Z,50.80
2022-11-09T17:58:45.975Z,49.70
2022-11-09T18:01:40.518Z,49.30
2022-11-09T18:04:29.529Z,54.20
2022-11-09T18:07:16.032Z,51.40
2022-11-09T18:10:04.985Z,51.10
2022-11-09T18:12:54.146Z,53.30
2022-11-09T18:15:41.515Z,51.80
2022-11-09T18:18:30.095Z,48.40
2022-11-09T18:21:19.879Z,50.30
2022-11-09T18:24:11.264Z,44.80
2022-11-09T18:27:01.441Z,45.30
2022-11-09T18:29:48.738Z,48.00
2022-11-09T18:32:37.718Z,47.40
2022-11-09T18:35:24.752Z,44.70
2022-11-09T18:38:18.680Z,44.80
2022-11-09T18:41:21.452Z,49.90
2022-11-09T18:44:17.820Z,48.20
2022-11-09T18:47:08.750Z,47.60
2022-11-09T18:49:56.174Z,48.80
2022-11-09T18:52:42.895Z,48.80
2022-11-09T18:55:30.595Z,45.50
2022-11-09T18:58:19.847Z,46.20
2022-11-09T19:01:09.700Z,46.80
2022-11-09T19:03:59.849Z,46.80
2022-11-09T19:06:47.296Z,43.30
2022-11-09T19:09:35.736Z,44.30
2022-11-09T19:12:26.851Z,45.50
2022-11-09T19:15:14.332Z,43.90
2022-11-09T19:18:02.778Z,44.30
2022-11-09T19:20:54.943Z,48.40
2022-11-09T19:23:42.018Z,51.40
2022-11-09T19:26:29.153Z,53.20
2022-11-09T19:29:16.934Z,49.10
2022-11-09T19:32:05.173Z,58.30
2022-11-09T19:34:51.601Z,56.30
2022-11-09T19:37:40.626Z,54.90
2022-11-09T19:40:39.795Z,50.20
2022-11-09T19:43:28.884Z,49.80
2022-11-09T19:46:17.879Z,42.80
2022-11-09T19:49:08.981Z,40.20
2022-11-09T19:51:56.933Z,41.60
2022-11-09T19:54:43.814Z,43.30
2022-11-09T19:57:32.921Z,40.90
2022-11-09T20:00:20.903Z,42.70
2022-11-09T20:03:11.172Z,40.10
2022-11-09T20:05:59.310Z,39.50
2022-11-09T20:08:47.991Z,38.30
2022-11-09T20:11:53.672Z,38.40
2022-11-09T20:14:41.144Z,39.30
2022-11-09T20:17:46.447Z,39.30
2022-11-09T20:20:41.512Z,39.90
2022-11-09T20:23:28.521Z,38.50
2022-11-09T20:26:17.628Z,41.90
2022-11-09T20:29:04.893Z,42.70
2022-11-09T20:31:52.161Z,39.70
2022-11-09T20:34:40.559Z,38.70
2022-11-09T20:37:28.433Z,38.70
2022-11-09T20:40:16.420Z,39.10
2022-11-09T20:43:03.540Z,38.00
2022-11-09T20:45:51.168Z,41.70
2022-11-09T20:48:53.554Z,42.10
2022-11-09T20:54:50.558Z,40.30
2022-11-09T20:57:38.340Z,44.90
2022-11-09T21:00:29.666Z,41.20
2022-11-09T21:03:16.796Z,41.70
2022-11-09T21:06:06.400Z,46.70
2022-11-09T21:08:56.345Z,38.90
2022-11-09T21:12:03.603Z,42.60
2022-11-09T21:14:50.325Z,37.80
2022-11-09T21:17:41.317Z,41.60
2022-11-09T21:20:28.652Z,42.10
2022-11-09T21:23:19.996Z,39.70
2022-11-09T21:26:28.004Z,38.90
2022-11-09T21:29:39.495Z,38.80
2022-11-09T21:32:28.960Z,40.00
2022-11-09T21:35:15.773Z,36.00
2022-11-09T21:38:03.565Z,40.90
2022-11-09T21:40:50.498Z,38.60
2022-11-09T21:43:37.785Z,42.30
2022-11-09T21:46:25.393Z,37.40
2022-11-09T21:49:13.778Z,37.60
2022-11-09T21:52:02.566Z,37.40
2022-11-09T21:54:50.279Z,40.70
2022-11-09T21:57:37.482Z,38.70
2022-11-09T22:00:24.313Z,36.20
2022-11-09T22:03:10.998Z,43.90
2022-11-09T22:05:57.964Z,41.50
2022-11-09T22:08:48.272Z,39.00
2022-11-09T22:11:53.815Z,45.50
2022-11-09T22:15:00.598Z,40.70
2022-11-09T22:17:53.939Z,42.10
2022-11-09T22:20:56.540Z,41.10
2022-11-09T22:23:43.915Z,38.40
2022-11-09T22:26:32.163Z,40.70
2022-11-09T22:29:18.869Z,44.50
2022-11-09T22:32:07.478Z,45.70
2022-11-09T22:34:54.085Z,40.70
2022-11-09T22:37:40.747Z,46.10
2022-11-09T22:40:27.953Z,43.40
2022-11-09T22:43:15.629Z,43.20
2022-11-09T22:46:20.666Z,44.60
2022-11-09T22:49:08.762Z,43.90
2022-11-09T22:51:56.444Z,43.60
2022-11-09T22:54:43.980Z,43.00
2022-11-09T22:57:33.822Z,47.40
2022-11-09T23:00:21.404Z,44.00
2022-11-09T23:03:10.261Z,41.80
2022-11-09T23:06:14.438Z,44.20
2022-11-09T23:09:01.015Z,41.00
2022-11-09T23:11:49.817Z,43.90
2022-11-09T23:14:55.484Z,44.60
2022-11-09T23:18:02.177Z,42.00
2022-11-09T23:20:50.149Z,43.10
2022-11-09T23:23:41.391Z,46.80
2022-11-09T23:26:31.322Z,43.20
2022-11-09T23:29:18.286Z,45.90
2022-11-09T23:32:06.558Z,42.70
2022-11-09T23:34:56.273Z,41.70
2022-11-09T23:37:44.097Z,43.90
2022-11-09T23:40:32.683Z,39.70
2022-11-09T23:43:19.784Z,43.00
2022-11-09T23:46:14.044Z,42.90
2022-11-09T23:49:01.764Z,43.70
2022-11-09T23:51:50.027Z,42.80
2022-11-09T23:54:37.915Z,38.20
2022-11-09T23:57:24.820Z,39.90
